createdAt,value
2023-05-11T00:08:06.123Z,48.5545
2023-05-11T00:09:07.913Z,48.5061
2023-05-11T00:10:09.563Z,48.4388
2023-05-11T00:19:23.172Z,48.1356
2023-05-11T00:23:11.715Z,48.0660
2023-05-11T00:24:13.421Z,47.9252
2023-05-11T00:50:30.536Z,47.2747
2023-05-11T00:51:32.346Z,47.1978
2023-05-11T00:52:34.041Z,47.1339
2023-05-11T01:02:39.346Z,46.9978
2023-05-11T01:09:47.693Z,46.9233
2023-05-11T01:28:21.517Z,46.6304
2023-05-11T01:30:42.861Z,46.6069
2023-05-11T01:32:45.223Z,46.6049
2023-05-11T01:33:46.920Z,46.5354
2023-05-11T01:34:48.674Z,46.5243
2023-05-11T01:35:50.401Z,46.5296
2023-05-11T01:37:52.758Z,46.5343
2023-05-11T01:43:57.530Z,46.4617
2023-05-11T01:46:23.640Z,46.4148
2023-05-11T01:51:03.821Z,46.4560
2023-05-11T01:52:05.540Z,46.4167
2023-05-11T02:18:38.448Z,45.9669
2023-05-11T02:38:46.219Z,45.6889
2023-05-11T02:39:47.931Z,45.7415
2023-05-11T02:40:49.707Z,45.7583
2023-05-11T02:48:24.450Z,45.7556
2023-05-11T02:51:32.409Z,45.6858
2023-05-11T02:52:34.160Z,45.6482
2023-05-11T02:53:35.866Z,45.6793
2023-05-11T02:57:02.780Z,45.6372
2023-05-11T02:58:04.557Z,45.7095
2023-05-11T02:59:06.238Z,45.6367
2023-05-11T03:13:32.096Z,45.7097
2023-05-11T03:14:33.826Z,45.7586
2023-05-11T03:15:35.593Z,45.7348
2023-05-11T03:16:37.408Z,45.6935
2023-05-11T03:17:39.108Z,45.7018
2023-05-11T03:18:40.821Z,45.6908
2023-05-11T03:19:42.534Z,45.6981
2023-05-11T03:38:18.117Z,45.7434
2023-05-11T03:39:19.854Z,45.7282
2023-05-11T03:40:21.598Z,45.6631
2023-05-11T03:41:23.318Z,45.6870
2023-05-11T03:47:13.859Z,45.6662
2023-05-11T04:00:53.333Z,45.6910
2023-05-11T04:01:55.048Z,45.6377
2023-05-11T04:15:25.483Z,45.7436
2023-05-11T04:16:27.278Z,45.7637
2023-05-11T04:17:28.979Z,45.7181
2023-05-11T04:18:30.756Z,45.7435
2023-05-11T04:25:49.699Z,45.9089
2023-05-11T04:26:51.412Z,45.8440
2023-05-11T04:27:53.171Z,45.8510
2023-05-11T04:34:55.091Z,45.9232
2023-05-11T04:35:56.811Z,45.8840
2023-05-11T04:36:58.568Z,45.8752
2023-05-11T04:38:00.285Z,45.8861
2023-05-11T04:39:02.032Z,45.8550
2023-05-11T04:42:53.646Z,45.8213
2023-05-11T04:51:10.776Z,45.9856
2023-05-11T04:52:12.492Z,45.9844
2023-05-11T04:53:14.259Z,45.9773
2023-05-11T04:54:15.979Z,46.0744
2023-05-11T05:00:11.307Z,45.9959
2023-05-11T05:01:13.143Z,46.0094
2023-05-11T05:02:14.741Z,46.0426
2023-05-11T05:03:16.535Z,46.0139
2023-05-11T05:04:18.243Z,45.9615
2023-05-11T05:05:19.942Z,45.9940
2023-05-11T05:09:20.978Z,46.3358
2023-05-11T05:10:22.726Z,46.3277
2023-05-11T05:11:24.447Z,46.4145
2023-05-11T05:12:26.208Z,46.4577
2023-05-11T05:13:27.938Z,46.4892
2023-05-11T05:14:29.682Z,46.4974
2023-05-11T05:15:31.422Z,46.5603
2023-05-11T05:25:22.170Z,46.5349
2023-05-11T05:40:09.071Z,46.3867
2023-05-11T05:46:25.849Z,46.4525
2023-05-11T05:47:27.499Z,46.4314
2023-05-11T05:48:29.233Z,46.4466
2023-05-11T05:49:30.962Z,46.4600
2023-05-11T05:58:11.535Z,46.4406
2023-05-11T05:59:13.268Z,46.4658
2023-05-11T06:00:15.003Z,46.4037
2023-05-11T06:03:38.763Z,46.5290
2023-05-11T06:04:40.494Z,46.5148
2023-05-11T06:05:42.220Z,46.5454
2023-05-11T06:06:43.869Z,46.6122
2023-05-11T06:07:51.488Z,46.6350
2023-05-11T06:11:55.717Z,46.7051
2023-05-11T06:16:00.455Z,46.7473
2023-05-11T06:17:02.121Z,46.7587
2023-05-11T06:18:03.903Z,46.8228
2023-05-11T06:23:25.865Z,46.9473
2023-05-11T06:24:27.576Z,47.0037
2023-05-11T06:29:43.389Z,47.1553
2023-05-11T06:42:36.611Z,47.4818
2023-05-11T06:48:17.396Z,47.6810
2023-05-11T06:55:49.021Z,47.9140
2023-05-11T06:56:50.714Z,47.8767
2023-05-11T06:57:52.457Z,47.8856
2023-05-11T07:00:04.293Z,47.9128
2023-05-11T07:16:32.187Z,47.8289
2023-05-11T07:17:33.928Z,47.7788
2023-05-11T07:30:47.232Z,48.0153
2023-05-11T07:31:48.993Z,48.0387
2023-05-11T07:32:50.779Z,48.0651
2023-05-11T07:33:52.458Z,48.0463
2023-05-11T07:34:54.205Z,48.0381
2023-05-11T07:35:55.924Z,48.0044
2023-05-11T07:36:57.665Z,48.0750
2023-05-11T07:43:54.192Z,47.9516
2023-05-11T07:44:55.904Z,47.8668
2023-05-11T07:54:55.830Z,47.6967
2023-05-11T08:09:03.050Z,47.4880
2023-05-11T08:10:04.735Z,47.4125
2023-05-11T08:13:45.927Z,47.4894
2023-05-11T08:14:47.692Z,47.4240
2023-05-11T08:35:05.261Z,47.6786
2023-05-11T08:36:06.947Z,47.6469
2023-05-11T08:39:21.530Z,47.6200
2023-05-11T08:45:40.922Z,47.6249
2023-05-11T08:50:12.955Z,47.4960
2023-05-11T09:09:24.877Z,47.2207
2023-05-11T09:10:26.593Z,47.2598
2023-05-11T09:15:51.935Z,47.1964
2023-05-11T09:16:53.689Z,47.1905
2023-05-11T09:17:55.560Z,47.1079
2023-05-11T09:18:57.170Z,47.0920
2023-05-11T09:31:22.636Z,46.3874
2023-05-11T09:34:44.749Z,46.2095
2023-05-11T09:43:24.907Z,45.9921
2023-05-11T09:44:26.645Z,46.0076
2023-05-11T09:45:28.363Z,45.9833
2023-05-11T09:52:12.916Z,46.0766
2023-05-11T09:53:14.602Z,46.1034
2023-05-11T09:54:16.325Z,46.0678
2023-05-11T09:55:18.203Z,45.9988
2023-05-11T09:56:19.835Z,45.9567
2023-05-11T09:57:21.556Z,45.8402
2023-05-11T09:58:23.320Z,45.7143
2023-05-11T10:10:12.977Z,44.7921
2023-05-11T10:11:14.730Z,44.6600
2023-05-11T10:20:46.961Z,44.3952
2023-05-11T10:21:48.699Z,44.4126
2023-05-11T10:24:05.270Z,44.4537
2023-05-11T10:25:06.998Z,44.4872
2023-05-11T10:26:08.734Z,44.5698
2023-05-11T10:27:10.493Z,44.6060
2023-05-11T10:28:12.260Z,44.6703
2023-05-11T10:29:13.968Z,44.7396
2023-05-11T10:30:15.757Z,44.8134
2023-05-11T10:31:17.487Z,44.8006
2023-05-11T10:32:19.143Z,44.7884
2023-05-11T10:33:20.882Z,44.7761
2023-05-11T10:34:22.623Z,44.7643
2023-05-11T10:35:24.392Z,44.7512
2023-05-11T10:38:38.474Z,44.6918
2023-05-11T10:39:40.233Z,44.6189
2023-05-11T10:40:41.984Z,44.5833
2023-05-11T10:43:08.035Z,44.5549
2023-05-11T10:49:17.436Z,45.2214
2023-05-11T10:50:19.368Z,45.2323
2023-05-11T10:53:42.796Z,45.2607
2023-05-11T10:54:44.569Z,45.2119
2023-05-11T10:55:47.001Z,45.1980
2023-05-11T10:56:48.030Z,45.2700
2023-05-11T10:57:49.767Z,45.3316
2023-05-11T10:58:51.507Z,45.3856
2023-05-11T11:03:12.679Z,45.5759
2023-05-11T11:07:30.217Z,45.7115
2023-05-11T11:08:31.972Z,45.7450
2023-05-11T11:09:33.713Z,45.8105
2023-05-11T11:10:35.432Z,45.9096
2023-05-11T11:11:37.245Z,46.0150
2023-05-11T11:12:38.936Z,46.1560
2023-05-11T11:13:40.644Z,46.2745
2023-05-11T11:14:42.411Z,46.2996
2023-05-11T11:15:44.115Z,46.4564
2023-05-11T11:16:45.886Z,46.7985
2023-05-11T11:17:47.599Z,46.9344
2023-05-11T11:18:49.482Z,47.0226
2023-05-11T11:19:51.107Z,47.2172
2023-05-11T11:20:52.788Z,47.4336
2023-05-11T11:21:54.527Z,47.4233
2023-05-11T11:24:06.343Z,47.4255
2023-05-11T11:25:08.198Z,47.4774
2023-05-11T11:26:09.841Z,47.4078
2023-05-11T11:35:40.017Z,47.7269
2023-05-11T11:36:41.680Z,47.7380
2023-05-11T11:37:43.408Z,47.7350
2023-05-11T11:38:45.171Z,47.8359
2023-05-11T11:50:14.605Z,47.5490
2023-05-11T11:51:16.370Z,47.7361
2023-05-11T11:58:31.051Z,48.2031
2023-05-11T12:04:18.090Z,48.5243
2023-05-11T12:05:19.840Z,48.4132
2023-05-11T12:06:21.239Z,48.4351
2023-05-11T12:07:22.988Z,48.2824
2023-05-11T12:08:24.743Z,48.3711
2023-05-11T12:09:26.463Z,48.3287
2023-05-11T12:10:28.216Z,48.2531
2023-05-11T12:11:29.935Z,48.3129
2023-05-11T12:19:23.859Z,48.6025
2023-05-11T12:27:47.224Z,48.8776
2023-05-11T12:28:48.922Z,48.8367
2023-05-11T12:29:50.685Z,49.0406
2023-05-11T12:30:52.485Z,48.7383
2023-05-11T12:31:54.204Z,48.8965
2023-05-11T12:32:57.659Z,48.7611
2023-05-11T12:33:57.628Z,48.7576
2023-05-11T12:37:21.272Z,48.8820
2023-05-11T12:38:23.036Z,49.0528
2023-05-11T13:17:48.305Z,49.0705
2023-05-11T13:18:50.058Z,49.0890
2023-05-11T13:19:51.762Z,49.1783
2023-05-11T13:30:27.215Z,49.7312
2023-05-11T13:34:03.539Z,49.5663
2023-05-11T13:35:05.314Z,49.2351
2023-05-11T13:36:07.041Z,49.6554
2023-05-11T13:58:02.928Z,50.7997
2023-05-11T13:59:04.691Z,51.1546
2023-05-11T14:00:06.417Z,50.7845
2023-05-11T14:16:19.896Z,50.5144
2023-05-11T14:22:16.743Z,50.4243
2023-05-11T14:33:20.464Z,50.3924
2023-05-11T14:45:49.275Z,50.4604
2023-05-11T14:46:51.038Z,50.5691
2023-05-11T14:53:06.600Z,50.3110
2023-05-11T14:54:08.318Z,50.2753
2023-05-11T14:55:10.074Z,50.3487
2023-05-11T15:05:17.759Z,50.4790
2023-05-11T15:06:19.385Z,50.5010
2023-05-11T15:08:35.977Z,50.6153
2023-05-11T15:09:37.716Z,50.6279
2023-05-11T15:10:39.458Z,50.6614
2023-05-11T15:13:05.537Z,50.7408
2023-05-11T15:15:50.629Z,50.7027
2023-05-11T15:16:52.320Z,50.6109
2023-05-11T15:17:54.152Z,50.5813
2023-05-11T15:18:55.843Z,50.7299
2023-05-11T15:19:57.532Z,50.7245
2023-05-11T15:20:59.292Z,50.7935
2023-05-11T15:22:57.141Z,50.9417
2023-05-11T15:23:58.898Z,51.0020
2023-05-11T15:25:00.597Z,50.9854
2023-05-11T15:26:02.360Z,51.0195
2023-05-11T15:27:04.100Z,51.2194
2023-05-11T15:31:51.528Z,52.1796
2023-05-11T15:32:53.332Z,52.1105
2023-05-11T15:33:55.020Z,52.4307
2023-05-11T15:34:59.632Z,52.1492
2023-05-11T15:35:58.439Z,52.0310
2023-05-11T15:37:00.186Z,52.1607
2023-05-11T15:38:01.883Z,52.0707
2023-05-11T15:41:25.493Z,51.9149
2023-05-11T15:46:31.151Z,50.9927
2023-05-11T15:47:32.898Z,50.7331
2023-05-11T15:48:34.615Z,50.6623
2023-05-11T15:49:36.344Z,50.3991
2023-05-11T15:50:38.070Z,50.2896
2023-05-11T15:51:39.823Z,50.1942
2023-05-11T15:52:41.621Z,50.1539
2023-05-11T15:58:17.861Z,49.4842
2023-05-11T15:59:19.586Z,49.5397
2023-05-11T16:00:21.432Z,49.4050
2023-05-11T16:01:23.073Z,49.2865
2023-05-11T16:02:24.828Z,49.1431
2023-05-11T16:03:26.664Z,49.0056
2023-05-11T16:04:28.286Z,48.9239
2023-05-11T16:05:30.008Z,48.7992
2023-05-11T16:06:31.765Z,48.7360
2023-05-11T16:07:33.501Z,48.6624
2023-05-11T16:08:35.212Z,48.7079
2023-05-11T16:09:36.964Z,48.5617
2023-05-11T16:10:38.961Z,48.5391
2023-05-11T16:11:40.451Z,48.4839
2023-05-11T16:12:42.145Z,48.3301
2023-05-11T16:13:43.900Z,48.3950
2023-05-11T16:14:45.624Z,48.3528
2023-05-11T16:15:47.374Z,48.3367
2023-05-11T16:16:49.119Z,48.2700
2023-05-11T16:17:50.861Z,48.3430
2023-05-11T16:18:52.594Z,48.3869
2023-05-11T16:19:54.285Z,48.5226
2023-05-11T16:20:56.050Z,48.4855
2023-05-11T16:21:57.878Z,48.4682
2023-05-11T16:22:59.533Z,48.6046
2023-05-11T16:24:01.250Z,48.5596
2023-05-11T16:25:03.003Z,48.5049
2023-05-11T16:26:04.707Z,48.6007
2023-05-11T16:27:06.473Z,48.6575
2023-05-11T16:28:08.204Z,48.5573
2023-05-11T16:29:09.931Z,48.4218
2023-05-11T16:30:23.240Z,48.4936
2023-05-11T16:31:13.423Z,48.5800
2023-05-11T16:32:15.128Z,48.4774
2023-05-11T16:33:16.902Z,48.4697
2023-05-11T16:34:18.647Z,48.5134
2023-05-11T16:35:20.379Z,48.6418
2023-05-11T16:44:08.159Z,48.8243
2023-05-11T16:45:09.868Z,48.8512
2023-05-11T16:46:11.670Z,48.9675
2023-05-11T16:47:13.351Z,49.0099
2023-05-11T16:48:15.112Z,49.1708
2023-05-11T16:49:16.817Z,49.1463
2023-05-11T16:53:09.149Z,49.3048
2023-05-11T16:54:10.888Z,49.3437
2023-05-11T16:55:12.646Z,49.3224
2023-05-11T16:56:14.392Z,49.3734
2023-05-11T16:57:16.103Z,49.3538
2023-05-11T16:58:17.817Z,49.4532
2023-05-11T16:59:19.571Z,49.4482
2023-05-11T17:00:21.571Z,49.4521
2023-05-11T17:01:23.056Z,49.5092
2023-05-11T17:02:24.793Z,49.5748
2023-05-11T17:03:26.569Z,49.6011
2023-05-11T17:04:28.253Z,49.6410
2023-05-11T17:05:29.956Z,49.6680
2023-05-11T17:06:31.702Z,49.7558
2023-05-11T17:07:33.422Z,49.8659
2023-05-11T17:11:16.031Z,50.1783
2023-05-11T17:12:17.752Z,50.2174
2023-05-11T17:13:19.490Z,50.3345
2023-05-11T17:14:21.249Z,50.4218
2023-05-11T17:15:22.976Z,50.3636
2023-05-11T17:16:24.752Z,50.4209
2023-05-11T17:17:26.514Z,50.4525
2023-05-11T17:18:28.224Z,50.4819
2023-05-11T17:19:29.907Z,50.5308
2023-05-11T17:20:31.665Z,50.6098
2023-05-11T17:21:33.410Z,50.5650
2023-05-11T17:22:35.188Z,50.6690
2023-05-11T17:23:36.876Z,50.6337
2023-05-11T17:24:38.647Z,50.6770
2023-05-11T17:28:14.988Z,50.8273
2023-05-11T17:32:02.457Z,50.8424
2023-05-11T17:33:04.257Z,50.7507
2023-05-11T17:34:05.922Z,50.7435
2023-05-11T17:35:07.564Z,50.7051
2023-05-11T17:36:09.280Z,50.7418
2023-05-11T17:37:20.443Z,50.7803
2023-05-11T17:38:12.775Z,50.7435
2023-05-11T17:39:14.498Z,50.7062
2023-05-11T17:40:16.219Z,50.6461
2023-05-11T17:41:17.943Z,50.5916
2023-05-11T17:42:19.702Z,50.6530
2023-05-11T17:43:21.416Z,50.6468
2023-05-11T17:44:23.175Z,50.6634
2023-05-11T17:45:24.909Z,50.5868
2023-05-11T17:46:26.737Z,50.6446
2023-05-11T17:47:28.408Z,50.6463
2023-05-11T17:48:30.088Z,50.6543
2023-05-11T17:49:31.842Z,50.6495
2023-05-11T17:50:33.570Z,50.6232
2023-05-11T17:51:35.308Z,50.6420
2023-05-11T17:52:37.043Z,50.5987
2023-05-11T17:53:38.766Z,50.5553
2023-05-11T17:54:40.482Z,50.5858
2023-05-11T17:55:42.256Z,50.5790
2023-05-11T17:56:43.998Z,50.5894
2023-05-11T17:57:45.703Z,50.5359
2023-05-11T17:58:47.448Z,50.5632
2023-05-11T17:59:49.177Z,50.5535
2023-05-11T18:00:50.893Z,50.5401
2023-05-11T18:01:52.825Z,50.5354
2023-05-11T18:02:54.417Z,50.5847
2023-05-11T18:03:56.196Z,50.5805
2023-05-11T18:04:57.853Z,50.5714
2023-05-11T18:05:59.564Z,50.5639
2023-05-11T18:07:01.306Z,50.6078
2023-05-11T18:08:03.032Z,50.6747
2023-05-11T18:09:04.784Z,50.7441
2023-05-11T18:10:06.513Z,50.8095
2023-05-11T18:11:08.239Z,50.8919
2023-05-11T18:12:10.001Z,50.9899
2023-05-11T18:13:11.717Z,51.0049
2023-05-11T18:14:13.484Z,51.0494
2023-05-11T18:15:15.187Z,51.1466
2023-05-11T18:16:16.954Z,51.2163
2023-05-11T18:17:18.664Z,51.2529
2023-05-11T18:18:20.442Z,51.2650
2023-05-11T18:19:22.134Z,51.3713
2023-05-11T18:20:23.882Z,51.3581
2023-05-11T18:21:25.619Z,51.3679
2023-05-11T18:22:27.332Z,51.4503
2023-05-11T18:23:29.083Z,51.4760
2023-05-11T18:24:30.790Z,51.4915
2023-05-11T18:25:32.591Z,51.4834
2023-05-11T18:26:34.258Z,51.5161
2023-05-11T18:27:36.025Z,51.5392
2023-05-11T18:28:37.731Z,51.5540
2023-05-11T18:29:39.466Z,51.5769
2023-05-11T18:30:41.236Z,51.5646
2023-05-11T18:31:43.000Z,51.5890
2023-05-11T18:32:44.689Z,51.5330
2023-05-11T18:33:46.665Z,51.4981
2023-05-11T18:34:48.166Z,51.5436
2023-05-11T18:35:49.870Z,51.5567
2023-05-11T18:36:51.617Z,51.4789
2023-05-11T18:37:53.374Z,51.5550
2023-05-11T18:38:55.063Z,51.6058
2023-05-11T18:39:56.797Z,51.5987
2023-05-11T18:40:58.559Z,51.6756
2023-05-11T18:42:00.266Z,51.7331
2023-05-11T18:43:02.008Z,51.7309
2023-05-11T18:44:03.766Z,51.6935
2023-05-11T18:45:05.457Z,51.7006
2023-05-11T18:54:12.684Z,51.8668
2023-05-11T18:55:14.422Z,51.8722
2023-05-11T18:56:16.149Z,51.8714
2023-05-11T18:57:17.863Z,51.8653
2023-05-11T18:58:19.607Z,51.7910
2023-05-11T18:59:21.344Z,51.7651
2023-05-11T19:00:23.123Z,51.8209
2023-05-11T19:01:30.512Z,51.8713
2023-05-11T19:02:26.627Z,51.8627
2023-05-11T19:03:28.518Z,51.8551
2023-05-11T19:04:30.014Z,51.7824
2023-05-11T19:05:31.723Z,51.8203
2023-05-11T19:06:33.461Z,51.8228
2023-05-11T19:07:35.176Z,51.8052
2023-05-11T19:08:36.924Z,51.8269
2023-05-11T19:09:38.630Z,51.7706
2023-05-11T19:10:40.453Z,51.7341
2023-05-11T19:11:42.144Z,51.6659
2023-05-11T19:12:43.849Z,51.7223
2023-05-11T19:13:45.585Z,51.6696
2023-05-11T19:14:47.586Z,51.6575
2023-05-11T19:15:49.022Z,51.6077
2023-05-11T19:16:50.810Z,51.5670
2023-05-11T19:17:52.529Z,51.5737
2023-05-11T19:18:54.230Z,51.4801
2023-05-11T19:19:55.979Z,51.5014
2023-05-11T19:20:57.681Z,51.4613
2023-05-11T19:21:59.438Z,51.4088
2023-05-11T19:23:01.165Z,51.3167
2023-05-11T19:24:02.922Z,51.2952
2023-05-11T19:26:33.734Z,51.2712
2023-05-11T19:27:35.453Z,51.2455
2023-05-11T19:28:37.194Z,51.1757
2023-05-11T19:29:38.922Z,51.1016
2023-05-11T19:30:40.686Z,51.1049
2023-05-11T19:31:42.406Z,51.0847
2023-05-11T19:32:44.468Z,51.0467
2023-05-11T19:33:45.899Z,51.0737
2023-05-11T19:34:47.600Z,51.0907
2023-05-11T19:35:49.336Z,51.0662
2023-05-11T19:36:51.088Z,51.0606
2023-05-11T19:37:52.811Z,51.1109
2023-05-11T19:38:54.568Z,51.0708
2023-05-11T19:40:06.450Z,51.1224
2023-05-11T19:42:03.535Z,51.1413
2023-05-11T19:43:05.006Z,51.1646
2023-05-11T19:44:06.743Z,51.1722
2023-05-11T19:45:08.504Z,51.2275
2023-05-11T19:46:10.263Z,51.1809
2023-05-11T19:47:11.986Z,51.2290
2023-05-11T19:48:13.857Z,51.2204
2023-05-11T19:49:15.620Z,51.2477
2023-05-11T19:50:17.374Z,51.2177
2023-05-11T19:51:18.919Z,51.3316
2023-05-11T19:52:20.660Z,51.3325
2023-05-11T19:53:22.391Z,51.3707
2023-05-11T19:54:24.151Z,51.3957
2023-05-11T19:55:25.855Z,51.4053
2023-05-11T19:56:27.602Z,51.4021
2023-05-11T19:57:29.347Z,51.4726
2023-05-11T19:58:31.050Z,51.5024
2023-05-11T19:59:32.959Z,51.5055
2023-05-11T20:00:34.555Z,51.5108
2023-05-11T20:01:36.320Z,51.5544
2023-05-11T20:02:38.081Z,51.6126
2023-05-11T20:03:39.839Z,51.6328
2023-05-11T20:04:41.490Z,51.6409
2023-05-11T20:05:43.227Z,51.6966
2023-05-11T20:06:44.950Z,51.6963
2023-05-11T20:07:46.675Z,51.6999
2023-05-11T20:08:48.959Z,51.6670
2023-05-11T20:09:50.142Z,51.6562
2023-05-11T20:10:51.881Z,51.7006
2023-05-11T20:11:53.640Z,51.7295
2023-05-11T20:12:55.359Z,51.7205
2023-05-11T20:13:57.081Z,51.6557
2023-05-11T20:14:58.840Z,51.6395
2023-05-11T20:16:00.607Z,51.6263
2023-05-11T20:17:02.288Z,51.6755
2023-05-11T20:18:04.115Z,51.6997
2023-05-11T20:19:05.824Z,51.6595
2023-05-11T20:20:07.499Z,51.6757
2023-05-11T20:21:09.268Z,51.6337
2023-05-11T20:22:10.995Z,51.5862
2023-05-11T20:23:12.700Z,51.6072
2023-05-11T20:24:14.464Z,51.6122
2023-05-11T20:25:18.859Z,51.6018
2023-05-11T20:29:26.619Z,51.6407
2023-05-11T20:30:28.329Z,51.6377
2023-05-11T20:31:30.098Z,51.6327
2023-05-11T20:32:31.836Z,51.6646
2023-05-11T20:34:35.476Z,51.6633
2023-05-11T20:35:37.015Z,51.6919
2023-05-11T20:36:38.788Z,51.6996
2023-05-11T20:37:40.624Z,51.7169
2023-05-11T20:38:42.330Z,51.6582
2023-05-11T20:39:44.037Z,51.6565
2023-05-11T20:40:45.739Z,51.6729
2023-05-11T20:41:47.440Z,51.6586
2023-05-11T20:42:49.196Z,51.6471
2023-05-11T20:43:50.917Z,51.7052
2023-05-11T20:44:52.682Z,51.7290
2023-05-11T20:45:54.428Z,51.7224
2023-05-11T20:46:56.151Z,51.6918
2023-05-11T20:47:57.914Z,51.7099
2023-05-11T20:48:59.596Z,51.7706
2023-05-11T20:50:01.409Z,51.7438
2023-05-11T20:51:03.073Z,51.7107
2023-05-11T20:52:04.809Z,51.7807
2023-05-11T20:53:06.568Z,51.7836
2023-05-11T20:54:08.288Z,51.7649
2023-05-11T20:55:10.017Z,51.7774
2023-05-11T20:56:11.742Z,51.8507
2023-05-11T20:57:13.534Z,51.8550
2023-05-11T20:58:15.234Z,51.8255
2023-05-11T21:00:18.786Z,51.7908
2023-05-11T21:01:20.435Z,51.8693
2023-05-11T21:02:22.325Z,51.8336
2023-05-11T21:03:24.018Z,51.8988
2023-05-11T21:04:25.657Z,51.9304
2023-05-11T21:05:27.401Z,51.9567
2023-05-11T21:06:29.108Z,51.9890
2023-05-11T21:07:30.860Z,52.0279
2023-05-11T21:08:32.614Z,51.9655
2023-05-11T21:09:34.352Z,51.9821
2023-05-11T21:10:36.064Z,52.0572
2023-05-11T21:11:37.796Z,52.0279
2023-05-11T21:12:39.535Z,51.9982
2023-05-11T21:17:13.974Z,52.0906
2023-05-11T21:18:15.587Z,52.1241
2023-05-11T21:19:17.322Z,52.1195
2023-05-11T21:20:19.269Z,52.1504
2023-05-11T21:21:20.831Z,52.2037
2023-05-11T21:22:22.546Z,52.2293
2023-05-11T21:23:24.276Z,52.2427
2023-05-11T21:24:26.012Z,52.2783
2023-05-11T21:25:27.763Z,52.2936
2023-05-11T21:26:29.506Z,52.3258
2023-05-11T21:27:31.220Z,52.3457
2023-05-11T21:28:32.972Z,52.2960
2023-05-11T21:29:34.695Z,52.3146
2023-05-11T21:30:36.456Z,52.3224
2023-05-11T21:31:38.188Z,52.3435
2023-05-11T21:32:39.937Z,52.2895
2023-05-11T21:33:41.639Z,52.3003
2023-05-11T21:34:43.394Z,52.3273
2023-05-11T21:35:45.118Z,52.3203
2023-05-11T21:36:46.852Z,52.3256
2023-05-11T21:37:48.583Z,52.3522
2023-05-11T21:38:50.317Z,52.3438
2023-05-11T21:39:52.060Z,52.3387
2023-05-11T21:40:53.809Z,52.2896
2023-05-11T21:41:55.527Z,52.3180
2023-05-11T21:42:57.258Z,52.3114
2023-05-11T21:43:59.001Z,52.2623
2023-05-11T21:45:00.733Z,52.3052
2023-05-11T21:46:02.511Z,52.2843
2023-05-11T21:47:04.211Z,52.3070
2023-05-11T21:48:05.990Z,52.2945
2023-05-11T21:49:07.700Z,52.3350
2023-05-11T21:50:09.420Z,52.3211
2023-05-11T21:51:11.156Z,52.3102
2023-05-11T21:52:12.886Z,52.2854
2023-05-11T21:53:14.635Z,52.2839
2023-05-11T21:54:16.366Z,52.2774
2023-05-11T21:55:18.105Z,52.2571
2023-05-11T21:56:19.849Z,52.3488
2023-05-11T21:57:21.579Z,52.3518
2023-05-11T21:58:23.325Z,52.3595
2023-05-11T21:59:25.059Z,52.4008
2023-05-11T22:00:26.784Z,52.3757
2023-05-11T22:01:28.600Z,52.3692
2023-05-11T22:02:30.310Z,52.3247
2023-05-11T22:03:32.100Z,52.3269
2023-05-11T22:04:33.712Z,52.3920
2023-05-11T22:05:35.497Z,52.3742
2023-05-11T22:06:37.190Z,52.3109
2023-05-11T22:07:38.923Z,52.3585
2023-05-11T22:08:40.668Z,52.3739
2023-05-11T22:09:42.399Z,52.3572
2023-05-11T22:10:44.130Z,52.3543
2023-05-11T22:11:45.863Z,52.3984
2023-05-11T22:12:47.612Z,52.4010
2023-05-11T22:13:49.330Z,52.4233
2023-05-11T22:14:51.064Z,52.4093
2023-05-11T22:15:52.878Z,52.4224
2023-05-11T22:16:54.541Z,52.4384
2023-05-11T22:17:56.328Z,52.4307
2023-05-11T22:18:58.056Z,52.4521
2023-05-11T22:19:59.726Z,52.4045
2023-05-11T22:21:01.465Z,52.3893
2023-05-11T22:22:03.200Z,52.4402
2023-05-11T22:23:04.930Z,52.3769
2023-05-11T22:24:06.666Z,52.3920
2023-05-11T22:25:08.400Z,52.4653
2023-05-11T22:26:10.133Z,52.4469
2023-05-11T22:27:11.881Z,52.4638
2023-05-11T22:28:13.609Z,52.4315
2023-05-11T22:29:15.340Z,52.3940
2023-05-11T22:30:17.160Z,52.3487
2023-05-11T22:31:18.827Z,52.4088
2023-05-11T22:32:20.579Z,52.3553
2023-05-11T22:33:22.279Z,52.3872
2023-05-11T22:34:24.015Z,52.3861
2023-05-11T22:35:25.837Z,52.3724
2023-05-11T22:36:27.485Z,52.3342
2023-05-11T22:37:29.224Z,52.3279
2023-05-11T22:38:30.957Z,52.3237
2023-05-11T22:39:32.694Z,52.3181
2023-05-11T22:42:40.833Z,52.1893
2023-05-11T22:43:42.558Z,52.0963
2023-05-11T22:44:44.297Z,52.0637
2023-05-11T22:45:46.056Z,52.0407
2023-05-11T22:46:47.775Z,52.0125
2023-05-11T22:47:49.577Z,51.9383
2023-05-11T22:48:51.281Z,51.9387
2023-05-11T22:49:53.020Z,51.8495
2023-05-11T22:50:54.743Z,51.8034
2023-05-11T22:51:56.485Z,51.7935
2023-05-11T22:52:58.219Z,51.7168
2023-05-11T22:53:59.953Z,51.6638
2023-05-11T22:55:01.714Z,51.6349
2023-05-11T22:56:03.424Z,51.5823
2023-05-11T22:57:05.179Z,51.5686
2023-05-11T22:58:06.877Z,51.4977
2023-05-11T22:59:08.612Z,51.3842
2023-05-11T23:00:10.343Z,51.4089
2023-05-11T23:03:13.683Z,51.2668
2023-05-11T23:04:15.264Z,51.2100
2023-05-11T23:05:17.019Z,51.1394
2023-05-11T23:06:18.749Z,51.0892
2023-05-11T23:07:20.495Z,51.0525
2023-05-11T23:08:22.223Z,51.0039
2023-05-11T23:09:23.964Z,50.9454
2023-05-11T23:10:25.704Z,50.9231
2023-05-11T23:11:27.444Z,50.8360
2023-05-11T23:12:29.187Z,50.8260
2023-05-11T23:13:30.909Z,50.7524
2023-05-11T23:14:32.660Z,50.6426
2023-05-11T23:15:34.399Z,50.6628
2023-05-11T23:16:36.119Z,50.5988
2023-05-11T23:17:37.930Z,50.5774
2023-05-11T23:18:39.784Z,50.5443
2023-05-11T23:19:41.421Z,50.4916
2023-05-11T23:21:39.338Z,50.4636
2023-05-11T23:22:41.061Z,50.4794
2023-05-11T23:23:42.788Z,50.4353
2023-05-11T23:24:44.534Z,50.4171
2023-05-11T23:25:46.275Z,50.3687
2023-05-11T23:26:47.998Z,50.3743
2023-05-11T23:27:49.759Z,50.3182
2023-05-11T23:28:51.561Z,50.2674
2023-05-11T23:29:53.227Z,50.2359
2023-05-11T23:32:05.615Z,50.2616
2023-05-11T23:34:45.923Z,50.3312
2023-05-11T23:35:47.672Z,50.3063
2023-05-11T23:36:49.415Z,50.3113
2023-05-11T23:37:51.134Z,50.3174
2023-05-11T23:38:52.870Z,50.3396
2023-05-11T23:39:54.599Z,50.3081
2023-05-11T23:40:56.340Z,50.3327
2023-05-11T23:41:58.077Z,50.3069
2023-05-11T23:42:59.801Z,50.2994
2023-05-11T23:44:01.558Z,50.3683
2023-05-11T23:46:03.865Z,50.3862
2023-05-11T23:47:05.653Z,50.3423
2023-05-11T23:48:07.387Z,50.3537
2023-05-11T23:49:09.099Z,50.3901
2023-05-11T23:50:10.848Z,50.3284
2023-05-11T23:51:12.571Z,50.3705
2023-05-11T23:52:14.301Z,50.3442
2023-05-11T23:53:16.053Z,50.3559
2023-05-11T23:54:17.781Z,50.3784
2023-05-11T23:55:19.516Z,50.3347
2023-05-11T23:56:21.242Z,50.3934
2023-05-11T23:57:22.984Z,50.3514
2023-05-11T23:58:24.695Z,50.2974
2023-05-11T23:59:26.420Z,50.3294
